Main page
METAR-TAF:

METAR-TAF

Airports :

Governor Francisco Gabrielli International Airport

Mendoza, Argentina

latitude: 32-50S, longitude: 068-47W, elevation: 705 m

Current weather observation

The report was made 24 minutes ago, at 23:00 UTC
Wind 10 kt from the Northeast
Temperature 32°C
Humidity 43%
Pressure 1009 hPa
Visibility 10 km or more
no clouds below 1500 m and no cumulonimbus

METAR: SAME 212300Z 05010KT CAVOK 32/18 Q1009

Time: 20:24 (23:24 UTC)

Forecast

The report was made 6 hours and 24 minutes ago, at 17:00 UTC
Forecast valid from 21 at 18 UTC to 22 at 18 UTC
Wind 10 kt from the Southeast
Visibility 10 km or more
Few clouds at a height of 4000 ft

TAF: SAME 211700Z 2118/2218 14010KT 9999 FEW040 TX33/2120Z TN19/2210Z

Weather observations and forecasts of more than 4000 airports (METAR and TAF reports).

The available stations are represented by yellow and red dots on the map.

Hover mouse over dot to see the name of the station.

Then click to see weather observations and forecasts.

To change the map : click on the green buttons with a black cross to zoom in, on the green button with a dash to zoom out, or on the green arrows for adjacent maps.


METAR-TAF: